Port Hardy Airport
CYZT : now visible

Airfield :











YOU CAN JOIN US ON...

 
LOGIN :

Register | Disclaimer

   EN    FR    IT 

 









Legend :    VFR   Marginal VFR   IFR   Intensive IFR   Very Intensive IFR
Visi :
Ceiling :
>= 8 km
>= 3000ft
5 to 8 km
1000 to 3000 ft
1500m to 5 km
500 to 1000 ft
800 to 1500m
200 to 500 ft
< 800m
< 200 ft
Symbols :   Thunderstorms  Fog  Heavy snow  Heavy precipitations  Wind > 20 kt






- Airport Elevation : 71 ft
- IATA code : YZT


CYZT - Port Hardy

CURRENT METAR :
  • 220500Z 32005KT 20SM FEW005 14/12 A2993 RMK SF1 FG OVR WTR DIST N-E SLP137

EXPIRED METARs :
  • 220452Z 34006KT 20SM FEW005 14/12 A2993 RMK SF1 FG OVR WTR DIST N-E SLP138
  • 220400Z 34006KT 290V360 20SM SKC 15/13 A2993 RMK FG OVR WTR DIST N-E SLP138 DENSITY ALT 100FT
  • 220300Z 31010KT 20SM FEW110 17/13 A2994 RMK AC1 AC TR FG OVR WTR DIST N-NE SLP140 DENSITY ALT 400FT

TAF TAF CYZT
Valid from the 22 at 01:00 until the 22 at 13:00 UTC


220038Z 2201/2213 34012KT P6SM FEW006
FM220500 27005KT P6SM SCT006
TEMPO 2205/2209 5SM BR BKN006
FM220900 27005KT P6SM SCT005 OVC010
TEMPO 2209/2213 2SM -DZ BR OVC005 RMK NXT FCST BY 220700Z
CZVR FIR / North America



MET'MAP, your aeronautical weather chart ! - Copyright ORBIFLY December 2007 - Disclaimer

ORBIFLY MET'MAP TEAM :

Programming & Development : Alexandra Zaïnal
Concept & original design : Baudouin d'Aumeries
Assistance for programming : Marc-Olivier Méhu
Technical & hardware support : Manuel Goepfert

Contact : metmap@orbifly.com




SOURCES & CREDITS :

   NOAA       Earth
Advisory